sensor_id;sensor_type;location;lat;lon;timestamp;temperature;humidity
10828;DHT22;5467;59.334;13.512;2023-04-24T00:01:43;6.30;99.90
10828;DHT22;5467;59.334;13.512;2023-04-24T00:04:10;6.40;99.90
10828;DHT22;5467;59.334;13.512;2023-04-24T00:06:42;6.30;99.90
10828;DHT22;5467;59.334;13.512;2023-04-24T00:09:09;6.40;99.90
10828;DHT22;5467;59.334;13.512;2023-04-24T00:11:37;6.30;99.90
10828;DHT22;5467;59.334;13.512;2023-04-24T00:14:04;6.40;99.90
10828;DHT22;5467;59.334;13.512;2023-04-24T00:16:31;6.40;99.90
10828;DHT22;5467;59.334;13.512;2023-04-24T00:18:59;6.40;99.90
10828;DHT22;5467;59.334;13.512;2023-04-24T00:21:27;6.40;99.90
10828;DHT22;5467;59.334;13.512;2023-04-24T00:23:55;6.50;99.90
10828;DHT22;5467;59.334;13.512;2023-04-24T00:26:22;6.60;99.90
10828;DHT22;5467;59.334;13.512;2023-04-24T00:28:50;6.50;99.90
10828;DHT22;5467;59.334;13.512;2023-04-24T00:31:17;6.40;99.90
10828;DHT22;5467;59.334;13.512;2023-04-24T00:33:44;6.40;99.90
10828;DHT22;5467;59.334;13.512;2023-04-24T00:36:13;6.50;99.90
10828;DHT22;5467;59.334;13.512;2023-04-24T00:38:40;6.60;99.90
10828;DHT22;5467;59.334;13.512;2023-04-24T00:41:07;6.70;99.90
10828;DHT22;5467;59.334;13.512;2023-04-24T00:43:34;6.60;99.90
10828;DHT22;5467;59.334;13.512;2023-04-24T00:46:01;6.60;99.90
10828;DHT22;5467;59.334;13.512;2023-04-24T00:48:28;6.50;99.90
10828;DHT22;5467;59.334;13.512;2023-04-24T00:50:56;6.50;99.90
10828;DHT22;5467;59.334;13.512;2023-04-24T00:53:25;6.50;99.90
10828;DHT22;5467;59.334;13.512;2023-04-24T00:55:52;6.40;99.90
10828;DHT22;5467;59.334;13.512;2023-04-24T00:58:20;6.40;99.90
10828;DHT22;5467;59.334;13.512;2023-04-24T01:00:49;6.40;99.90
10828;DHT22;5467;59.334;13.512;2023-04-24T01:03:18;6.40;99.90
10828;DHT22;5467;59.334;13.512;2023-04-24T01:05:46;6.40;99.90
10828;DHT22;5467;59.334;13.512;2023-04-24T01:08:14;6.40;99.90
10828;DHT22;5467;59.334;13.512;2023-04-24T01:10:44;6.40;99.90
10828;DHT22;5467;59.334;13.512;2023-04-24T01:13:11;6.40;99.90
10828;DHT22;5467;59.334;13.512;2023-04-24T01:15:38;6.40;99.90
10828;DHT22;5467;59.334;13.512;2023-04-24T01:18:05;6.30;99.90
10828;DHT22;5467;59.334;13.512;2023-04-24T01:20:33;6.30;99.90
10828;DHT22;5467;59.334;13.512;2023-04-24T01:23:01;6.20;99.90
10828;DHT22;5467;59.334;13.512;2023-04-24T01:25:29;6.20;99.90
10828;DHT22;5467;59.334;13.512;2023-04-24T01:27:57;6.20;99.90
10828;DHT22;5467;59.334;13.512;2023-04-24T01:30:25;6.00;99.90
10828;DHT22;5467;59.334;13.512;2023-04-24T01:32:53;6.10;99.90
10828;DHT22;5467;59.334;13.512;2023-04-24T01:35:22;6.30;99.90
10828;DHT22;5467;59.334;13.512;2023-04-24T01:37:49;6.20;99.90
10828;DHT22;5467;59.334;13.512;2023-04-24T01:40:17;6.10;99.90
10828;DHT22;5467;59.334;13.512;2023-04-24T01:42:45;6.00;99.90
10828;DHT22;5467;59.334;13.512;2023-04-24T01:45:12;6.00;99.90
10828;DHT22;5467;59.334;13.512;2023-04-24T01:47:39;6.00;99.90
10828;DHT22;5467;59.334;13.512;2023-04-24T01:50:07;6.00;99.90
10828;DHT22;5467;59.334;13.512;2023-04-24T01:52:35;6.00;99.90
10828;DHT22;5467;59.334;13.512;2023-04-24T01:55:02;6.00;99.90
10828;DHT22;5467;59.334;13.512;2023-04-24T01:57:31;6.00;99.90
10828;DHT22;5467;59.334;13.512;2023-04-24T01:59:58;6.00;99.90
10828;DHT22;5467;59.334;13.512;2023-04-24T02:02:25;6.00;99.90
10828;DHT22;5467;59.334;13.512;2023-04-24T02:04:54;5.90;99.90
10828;DHT22;5467;59.334;13.512;2023-04-24T02:07:21;5.80;99.90
10828;DHT22;5467;59.334;13.512;2023-04-24T02:09:48;6.00;99.90
10828;DHT22;5467;59.334;13.512;2023-04-24T02:12:16;6.00;99.90
10828;DHT22;5467;59.334;13.512;2023-04-24T02:14:44;5.90;99.90
10828;DHT22;5467;59.334;13.512;2023-04-24T02:17:11;5.80;99.90
10828;DHT22;5467;59.334;13.512;2023-04-24T02:19:41;5.70;99.90
10828;DHT22;5467;59.334;13.512;2023-04-24T02:22:08;5.70;99.90
10828;DHT22;5467;59.334;13.512;2023-04-24T02:24:36;5.70;99.90
10828;DHT22;5467;59.334;13.512;2023-04-24T02:27:03;5.80;99.90
10828;DHT22;5467;59.334;13.512;2023-04-24T02:29:31;5.80;99.90
10828;DHT22;5467;59.334;13.512;2023-04-24T02:32:00;5.80;99.90
10828;DHT22;5467;59.334;13.512;2023-04-24T02:34:27;5.90;99.90
10828;DHT22;5467;59.334;13.512;2023-04-24T02:36:54;5.80;99.90
10828;DHT22;5467;59.334;13.512;2023-04-24T02:39:21;5.70;99.90
10828;DHT22;5467;59.334;13.512;2023-04-24T02:41:48;5.60;99.90
10828;DHT22;5467;59.334;13.512;2023-04-24T02:44:15;5.70;99.90
10828;DHT22;5467;59.334;13.512;2023-04-24T02:46:43;5.80;99.90
10828;DHT22;5467;59.334;13.512;2023-04-24T02:49:12;5.80;99.90
10828;DHT22;5467;59.334;13.512;2023-04-24T02:51:39;5.80;99.90
10828;DHT22;5467;59.334;13.512;2023-04-24T02:54:07;5.70;99.90
10828;DHT22;5467;59.334;13.512;2023-04-24T02:56:35;5.80;99.90
10828;DHT22;5467;59.334;13.512;2023-04-24T02:59:02;5.90;99.90
10828;DHT22;5467;59.334;13.512;2023-04-24T03:01:30;5.80;99.90
10828;DHT22;5467;59.334;13.512;2023-04-24T03:03:57;5.80;99.90
10828;DHT22;5467;59.334;13.512;2023-04-24T03:06:26;5.80;99.90
10828;DHT22;5467;59.334;13.512;2023-04-24T03:08:53;5.80;99.90
10828;DHT22;5467;59.334;13.512;2023-04-24T03:11:21;5.80;99.90
10828;DHT22;5467;59.334;13.512;2023-04-24T03:13:48;5.70;99.90
10828;DHT22;5467;59.334;13.512;2023-04-24T03:16:15;5.70;99.90
10828;DHT22;5467;59.334;13.512;2023-04-24T03:18:42;5.70;99.90
10828;DHT22;5467;59.334;13.512;2023-04-24T03:21:09;5.80;99.90
10828;DHT22;5467;59.334;13.512;2023-04-24T03:23:38;5.70;99.90
10828;DHT22;5467;59.334;13.512;2023-04-24T03:26:05;5.80;99.90
10828;DHT22;5467;59.334;13.512;2023-04-24T03:28:32;5.80;99.90
10828;DHT22;5467;59.334;13.512;2023-04-24T03:30:59;5.70;99.90
10828;DHT22;5467;59.334;13.512;2023-04-24T03:33:26;5.60;99.90
10828;DHT22;5467;59.334;13.512;2023-04-24T03:35:53;5.60;99.90
10828;DHT22;5467;59.334;13.512;2023-04-24T03:38:20;5.50;99.90
10828;DHT22;5467;59.334;13.512;2023-04-24T03:40:49;5.50;99.90
10828;DHT22;5467;59.334;13.512;2023-04-24T03:43:16;5.60;99.90
10828;DHT22;5467;59.334;13.512;2023-04-24T03:45:43;5.70;99.90
10828;DHT22;5467;59.334;13.512;2023-04-24T03:48:10;5.80;99.90
10828;DHT22;5467;59.334;13.512;2023-04-24T03:50:37;5.80;99.90
10828;DHT22;5467;59.334;13.512;2023-04-24T03:53:04;5.60;99.90
10828;DHT22;5467;59.334;13.512;2023-04-24T03:55:32;5.70;99.90
10828;DHT22;5467;59.334;13.512;2023-04-24T03:58:01;5.70;99.90
10828;DHT22;5467;59.334;13.512;2023-04-24T04:00:28;5.70;99.90
10828;DHT22;5467;59.334;13.512;2023-04-24T04:02:58;5.60;99.90
10828;DHT22;5467;59.334;13.512;2023-04-24T04:05:26;5.60;99.90
10828;DHT22;5467;59.334;13.512;2023-04-24T04:07:53;5.50;99.90
10828;DHT22;5467;59.334;13.512;2023-04-24T04:10:20;5.50;99.90
10828;DHT22;5467;59.334;13.512;2023-04-24T04:12:47;5.50;99.90
10828;DHT22;5467;59.334;13.512;2023-04-24T04:15:16;5.60;99.90
10828;DHT22;5467;59.334;13.512;2023-04-24T04:17:43;5.50;99.90
10828;DHT22;5467;59.334;13.512;2023-04-24T04:20:11;5.40;99.90
10828;DHT22;5467;59.334;13.512;2023-04-24T04:22:39;5.50;99.90
10828;DHT22;5467;59.334;13.512;2023-04-24T04:25:07;5.30;99.90
10828;DHT22;5467;59.334;13.512;2023-04-24T04:27:34;5.30;99.90
10828;DHT22;5467;59.334;13.512;2023-04-24T04:30:02;5.40;99.90
10828;DHT22;5467;59.334;13.512;2023-04-24T04:32:31;5.30;99.90
10828;DHT22;5467;59.334;13.512;2023-04-24T04:35:00;5.40;99.90
10828;DHT22;5467;59.334;13.512;2023-04-24T04:37:29;5.40;99.90
10828;DHT22;5467;59.334;13.512;2023-04-24T04:39:56;5.40;99.90
10828;DHT22;5467;59.334;13.512;2023-04-24T04:42:25;5.30;99.90
10828;DHT22;5467;59.334;13.512;2023-04-24T04:44:52;5.30;99.90
10828;DHT22;5467;59.334;13.512;2023-04-24T04:47:21;5.40;99.90
10828;DHT22;5467;59.334;13.512;2023-04-24T04:49:50;5.40;99.90
10828;DHT22;5467;59.334;13.512;2023-04-24T04:52:18;5.30;99.90
10828;DHT22;5467;59.334;13.512;2023-04-24T04:54:45;5.30;99.90
10828;DHT22;5467;59.334;13.512;2023-04-24T04:57:12;5.40;99.90
10828;DHT22;5467;59.334;13.512;2023-04-24T04:59:39;5.30;99.90
10828;DHT22;5467;59.334;13.512;2023-04-24T05:02:06;5.30;99.90
10828;DHT22;5467;59.334;13.512;2023-04-24T05:04:33;5.30;99.90
10828;DHT22;5467;59.334;13.512;2023-04-24T05:07:02;5.40;99.90
10828;DHT22;5467;59.334;13.512;2023-04-24T05:09:29;5.30;99.90
10828;DHT22;5467;59.334;13.512;2023-04-24T05:11:56;5.40;99.90
10828;DHT22;5467;59.334;13.512;2023-04-24T05:14:23;5.30;99.90
10828;DHT22;5467;59.334;13.512;2023-04-24T05:16:51;5.30;99.90
10828;DHT22;5467;59.334;13.512;2023-04-24T05:19:18;5.30;99.90
10828;DHT22;5467;59.334;13.512;2023-04-24T05:21:45;5.30;99.90
10828;DHT22;5467;59.334;13.512;2023-04-24T05:24:13;5.30;99.90
10828;DHT22;5467;59.334;13.512;2023-04-24T05:26:40;5.30;99.90
10828;DHT22;5467;59.334;13.512;2023-04-24T05:29:08;5.50;99.90
10828;DHT22;5467;59.334;13.512;2023-04-24T05:31:35;5.50;99.90
10828;DHT22;5467;59.334;13.512;2023-04-24T05:34:02;5.50;99.90
10828;DHT22;5467;59.334;13.512;2023-04-24T05:36:29;5.50;99.90
10828;DHT22;5467;59.334;13.512;2023-04-24T05:38:56;5.50;99.90
10828;DHT22;5467;59.334;13.512;2023-04-24T05:41:25;5.60;99.90
10828;DHT22;5467;59.334;13.512;2023-04-24T05:43:52;5.60;99.90
10828;DHT22;5467;59.334;13.512;2023-04-24T05:46:19;5.80;99.90
10828;DHT22;5467;59.334;13.512;2023-04-24T05:48:46;5.80;99.90
10828;DHT22;5467;59.334;13.512;2023-04-24T05:51:13;5.70;99.90
10828;DHT22;5467;59.334;13.512;2023-04-24T05:53:40;5.70;99.90
10828;DHT22;5467;59.334;13.512;2023-04-24T05:56:08;5.70;99.90
10828;DHT22;5467;59.334;13.512;2023-04-24T05:58:36;5.70;99.90
10828;DHT22;5467;59.334;13.512;2023-04-24T06:01:04;5.70;99.90
10828;DHT22;5467;59.334;13.512;2023-04-24T06:03:31;5.70;99.90
10828;DHT22;5467;59.334;13.512;2023-04-24T06:05:59;5.70;99.90
10828;DHT22;5467;59.334;13.512;2023-04-24T06:08:26;5.70;99.90
10828;DHT22;5467;59.334;13.512;2023-04-24T06:10:53;5.70;99.90
10828;DHT22;5467;59.334;13.512;2023-04-24T06:13:20;5.70;99.90
10828;DHT22;5467;59.334;13.512;2023-04-24T06:15:48;5.70;99.90
10828;DHT22;5467;59.334;13.512;2023-04-24T06:18:15;5.70;99.90
10828;DHT22;5467;59.334;13.512;2023-04-24T06:20:43;5.80;99.90
10828;DHT22;5467;59.334;13.512;2023-04-24T06:23:10;5.80;99.90
10828;DHT22;5467;59.334;13.512;2023-04-24T06:25:38;5.80;99.90
10828;DHT22;5467;59.334;13.512;2023-04-24T06:28:05;6.00;99.90
10828;DHT22;5467;59.334;13.512;2023-04-24T06:30:32;6.10;99.90
10828;DHT22;5467;59.334;13.512;2023-04-24T06:33:01;6.10;99.90
10828;DHT22;5467;59.334;13.512;2023-04-24T06:35:28;6.10;99.90
10828;DHT22;5467;59.334;13.512;2023-04-24T06:37:55;6.20;99.90
10828;DHT22;5467;59.334;13.512;2023-04-24T06:40:22;6.20;99.90
10828;DHT22;5467;59.334;13.512;2023-04-24T06:42:50;6.20;99.90
10828;DHT22;5467;59.334;13.512;2023-04-24T06:45:18;6.20;99.90
10828;DHT22;5467;59.334;13.512;2023-04-24T06:47:45;6.20;99.90
10828;DHT22;5467;59.334;13.512;2023-04-24T06:50:13;6.30;99.90
10828;DHT22;5467;59.334;13.512;2023-04-24T06:52:41;6.30;99.90
10828;DHT22;5467;59.334;13.512;2023-04-24T06:55:08;6.30;99.90
10828;DHT22;5467;59.334;13.512;2023-04-24T06:57:36;6.30;99.90
10828;DHT22;5467;59.334;13.512;2023-04-24T07:00:05;6.40;99.90
10828;DHT22;5467;59.334;13.512;2023-04-24T07:02:32;6.50;99.90
10828;DHT22;5467;59.334;13.512;2023-04-24T07:05:00;6.60;99.90
10828;DHT22;5467;59.334;13.512;2023-04-24T07:07:28;6.50;99.90
10828;DHT22;5467;59.334;13.512;2023-04-24T07:09:56;6.70;99.90
10828;DHT22;5467;59.334;13.512;2023-04-24T07:12:24;6.80;99.90
10828;DHT22;5467;59.334;13.512;2023-04-24T07:14:51;6.80;99.90
10828;DHT22;5467;59.334;13.512;2023-04-24T07:17:18;6.80;99.90
10828;DHT22;5467;59.334;13.512;2023-04-24T07:19:45;6.70;99.90
10828;DHT22;5467;59.334;13.512;2023-04-24T07:22:12;6.60;99.90
10828;DHT22;5467;59.334;13.512;2023-04-24T07:24:44;6.70;99.90
10828;DHT22;5467;59.334;13.512;2023-04-24T07:27:11;6.60;99.90
10828;DHT22;5467;59.334;13.512;2023-04-24T07:29:40;6.50;99.90
10828;DHT22;5467;59.334;13.512;2023-04-24T07:32:07;6.50;99.90
10828;DHT22;5467;59.334;13.512;2023-04-24T07:34:34;6.50;99.90
10828;DHT22;5467;59.334;13.512;2023-04-24T07:37:02;6.50;99.90
10828;DHT22;5467;59.334;13.512;2023-04-24T07:39:29;6.60;99.90
10828;DHT22;5467;59.334;13.512;2023-04-24T07:41:58;6.60;99.90
10828;DHT22;5467;59.334;13.512;2023-04-24T07:44:27;6.60;99.90
10828;DHT22;5467;59.334;13.512;2023-04-24T07:46:54;6.80;99.90
10828;DHT22;5467;59.334;13.512;2023-04-24T07:49:21;6.70;99.90
10828;DHT22;5467;59.334;13.512;2023-04-24T07:51:49;6.70;99.90
10828;DHT22;5467;59.334;13.512;2023-04-24T07:54:16;6.80;99.90
10828;DHT22;5467;59.334;13.512;2023-04-24T07:56:43;6.80;99.90
10828;DHT22;5467;59.334;13.512;2023-04-24T07:59:12;6.90;99.90
10828;DHT22;5467;59.334;13.512;2023-04-24T08:01:40;6.90;99.90
10828;DHT22;5467;59.334;13.512;2023-04-24T08:04:07;6.90;99.90
10828;DHT22;5467;59.334;13.512;2023-04-24T08:06:34;7.00;99.90
10828;DHT22;5467;59.334;13.512;2023-04-24T08:09:01;7.00;99.90
10828;DHT22;5467;59.334;13.512;2023-04-24T08:11:29;7.10;99.90
10828;DHT22;5467;59.334;13.512;2023-04-24T08:13:57;7.30;99.90
10828;DHT22;5467;59.334;13.512;2023-04-24T08:16:26;7.20;99.90
10828;DHT22;5467;59.334;13.512;2023-04-24T08:18:53;7.30;99.90
10828;DHT22;5467;59.334;13.512;2023-04-24T08:21:20;7.40;99.90
10828;DHT22;5467;59.334;13.512;2023-04-24T08:23:47;7.30;99.90
10828;DHT22;5467;59.334;13.512;2023-04-24T08:26:14;7.30;99.90
10828;DHT22;5467;59.334;13.512;2023-04-24T08:28:42;7.50;99.90
10828;DHT22;5467;59.334;13.512;2023-04-24T08:31:09;7.40;99.90
10828;DHT22;5467;59.334;13.512;2023-04-24T08:33:38;7.50;99.90
10828;DHT22;5467;59.334;13.512;2023-04-24T08:36:07;7.50;99.90
10828;DHT22;5467;59.334;13.512;2023-04-24T08:38:34;7.40;99.90
10828;DHT22;5467;59.334;13.512;2023-04-24T08:41:01;7.40;99.90
10828;DHT22;5467;59.334;13.512;2023-04-24T08:43:30;7.40;99.90
10828;DHT22;5467;59.334;13.512;2023-04-24T08:46:00;7.40;99.90
10828;DHT22;5467;59.334;13.512;2023-04-24T08:48:27;7.50;99.90
10828;DHT22;5467;59.334;13.512;2023-04-24T08:50:57;7.50;99.90
10828;DHT22;5467;59.334;13.512;2023-04-24T08:53:24;7.50;99.90
10828;DHT22;5467;59.334;13.512;2023-04-24T08:55:54;7.40;99.90
10828;DHT22;5467;59.334;13.512;2023-04-24T08:58:21;7.50;99.90
10828;DHT22;5467;59.334;13.512;2023-04-24T09:00:49;7.40;99.90
10828;DHT22;5467;59.334;13.512;2023-04-24T09:03:17;7.40;99.90
10828;DHT22;5467;59.334;13.512;2023-04-24T09:05:46;7.40;99.90
10828;DHT22;5467;59.334;13.512;2023-04-24T09:08:18;7.40;99.90
10828;DHT22;5467;59.334;13.512;2023-04-24T09:10:45;7.40;99.90
10828;DHT22;5467;59.334;13.512;2023-04-24T09:13:13;7.30;99.90
10828;DHT22;5467;59.334;13.512;2023-04-24T09:15:41;7.30;99.90
10828;DHT22;5467;59.334;13.512;2023-04-24T09:18:09;7.40;99.90
10828;DHT22;5467;59.334;13.512;2023-04-24T09:20:59;7.30;99.90
10828;DHT22;5467;59.334;13.512;2023-04-24T09:23:29;7.30;99.90
10828;DHT22;5467;59.334;13.512;2023-04-24T09:25:57;7.40;99.90
10828;DHT22;5467;59.334;13.512;2023-04-24T09:28:30;7.30;99.90
10828;DHT22;5467;59.334;13.512;2023-04-24T09:31:08;7.30;99.90
10828;DHT22;5467;59.334;13.512;2023-04-24T09:33:35;7.40;99.90
10828;DHT22;5467;59.334;13.512;2023-04-24T09:36:03;7.60;99.90
10828;DHT22;5467;59.334;13.512;2023-04-24T09:38:34;7.60;99.90
10828;DHT22;5467;59.334;13.512;2023-04-24T09:41:01;7.80;99.90
10828;DHT22;5467;59.334;13.512;2023-04-24T09:43:29;7.70;99.90
10828;DHT22;5467;59.334;13.512;2023-04-24T09:45:57;7.80;99.90
10828;DHT22;5467;59.334;13.512;2023-04-24T09:48:33;7.80;99.90
10828;DHT22;5467;59.334;13.512;2023-04-24T09:51:01;7.80;99.90
10828;DHT22;5467;59.334;13.512;2023-04-24T09:53:30;7.90;99.90
10828;DHT22;5467;59.334;13.512;2023-04-24T09:56:06;7.90;99.90
10828;DHT22;5467;59.334;13.512;2023-04-24T09:58:35;7.80;99.90
10828;DHT22;5467;59.334;13.512;2023-04-24T10:01:03;7.70;99.90
10828;DHT22;5467;59.334;13.512;2023-04-24T10:03:30;7.70;99.90
10828;DHT22;5467;59.334;13.512;2023-04-24T10:05:59;7.60;99.90
10828;DHT22;5467;59.334;13.512;2023-04-24T10:08:26;7.50;99.90
10828;DHT22;5467;59.334;13.512;2023-04-24T10:11:02;7.50;99.90
10828;DHT22;5467;59.334;13.512;2023-04-24T10:13:29;7.70;99.90
10828;DHT22;5467;59.334;13.512;2023-04-24T10:15:59;7.80;99.90
10828;DHT22;5467;59.334;13.512;2023-04-24T10:18:27;7.70;99.90
10828;DHT22;5467;59.334;13.512;2023-04-24T10:20:54;7.50;99.90
10828;DHT22;5467;59.334;13.512;2023-04-24T10:23:22;7.50;99.90
10828;DHT22;5467;59.334;13.512;2023-04-24T10:25:50;7.40;99.90
10828;DHT22;5467;59.334;13.512;2023-04-24T10:28:20;7.40;99.90
10828;DHT22;5467;59.334;13.512;2023-04-24T10:30:49;7.30;99.90
10828;DHT22;5467;59.334;13.512;2023-04-24T10:33:21;7.30;99.90
10828;DHT22;5467;59.334;13.512;2023-04-24T10:35:50;7.20;99.90
10828;DHT22;5467;59.334;13.512;2023-04-24T10:38:22;7.30;99.90
10828;DHT22;5467;59.334;13.512;2023-04-24T10:40:51;7.30;99.90
10828;DHT22;5467;59.334;13.512;2023-04-24T10:43:20;7.30;99.90
10828;DHT22;5467;59.334;13.512;2023-04-24T10:46:01;7.30;99.90
10828;DHT22;5467;59.334;13.512;2023-04-24T10:48:28;7.40;99.90
10828;DHT22;5467;59.334;13.512;2023-04-24T10:50:56;7.30;99.90
10828;DHT22;5467;59.334;13.512;2023-04-24T10:53:24;7.30;99.90
10828;DHT22;5467;59.334;13.512;2023-04-24T10:55:57;7.30;99.90
10828;DHT22;5467;59.334;13.512;2023-04-24T10:58:36;7.40;99.90
10828;DHT22;5467;59.334;13.512;2023-04-24T11:01:05;7.30;99.90
10828;DHT22;5467;59.334;13.512;2023-04-24T11:03:34;7.30;99.90
10828;DHT22;5467;59.334;13.512;2023-04-24T11:06:04;7.40;99.90
10828;DHT22;5467;59.334;13.512;2023-04-24T11:08:36;7.50;99.90
10828;DHT22;5467;59.334;13.512;2023-04-24T11:11:08;7.40;99.90
10828;DHT22;5467;59.334;13.512;2023-04-24T11:14:03;7.50;99.90
10828;DHT22;5467;59.334;13.512;2023-04-24T11:16:32;7.50;99.90
10828;DHT22;5467;59.334;13.512;2023-04-24T11:19:02;7.40;99.90
10828;DHT22;5467;59.334;13.512;2023-04-24T11:21:32;7.50;99.90
10828;DHT22;5467;59.334;13.512;2023-04-24T11:24:29;7.60;99.90
10828;DHT22;5467;59.334;13.512;2023-04-24T11:26:58;7.50;99.90
10828;DHT22;5467;59.334;13.512;2023-04-24T11:29:46;7.50;99.90
10828;DHT22;5467;59.334;13.512;2023-04-24T11:32:24;7.30;99.90
10828;DHT22;5467;59.334;13.512;2023-04-24T11:34:53;7.30;99.90
10828;DHT22;5467;59.334;13.512;2023-04-24T11:37:22;7.40;99.90
10828;DHT22;5467;59.334;13.512;2023-04-24T11:39:53;7.40;99.90
10828;DHT22;5467;59.334;13.512;2023-04-24T11:42:22;7.60;99.90
10828;DHT22;5467;59.334;13.512;2023-04-24T11:44:52;7.70;99.90
10828;DHT22;5467;59.334;13.512;2023-04-24T11:47:19;7.60;99.90
10828;DHT22;5467;59.334;13.512;2023-04-24T11:49:49;7.60;99.90
10828;DHT22;5467;59.334;13.512;2023-04-24T11:52:17;7.60;99.90
10828;DHT22;5467;59.334;13.512;2023-04-24T11:54:48;7.50;99.90
10828;DHT22;5467;59.334;13.512;2023-04-24T11:57:16;7.60;99.90
10828;DHT22;5467;59.334;13.512;2023-04-24T11:59:43;7.70;99.90
10828;DHT22;5467;59.334;13.512;2023-04-24T12:02:21;7.60;99.90
10828;DHT22;5467;59.334;13.512;2023-04-24T12:04:49;7.70;99.90
10828;DHT22;5467;59.334;13.512;2023-04-24T12:07:16;7.80;99.90
10828;DHT22;5467;59.334;13.512;2023-04-24T12:09:44;7.70;99.90
10828;DHT22;5467;59.334;13.512;2023-04-24T12:12:12;7.70;99.90
10828;DHT22;5467;59.334;13.512;2023-04-24T12:14:44;7.70;99.90
10828;DHT22;5467;59.334;13.512;2023-04-24T12:17:11;7.60;99.90
10828;DHT22;5467;59.334;13.512;2023-04-24T12:19:45;7.60;99.90
10828;DHT22;5467;59.334;13.512;2023-04-24T12:22:12;7.50;99.90
10828;DHT22;5467;59.334;13.512;2023-04-24T12:24:57;7.40;99.90
10828;DHT22;5467;59.334;13.512;2023-04-24T12:27:26;7.50;99.90
10828;DHT22;5467;59.334;13.512;2023-04-24T12:29:55;7.30;99.90
10828;DHT22;5467;59.334;13.512;2023-04-24T12:32:23;7.30;99.90
10828;DHT22;5467;59.334;13.512;2023-04-24T12:34:53;7.20;99.90
10828;DHT22;5467;59.334;13.512;2023-04-24T12:37:20;7.20;99.90
10828;DHT22;5467;59.334;13.512;2023-04-24T12:40:01;7.20;99.90
10828;DHT22;5467;59.334;13.512;2023-04-24T12:42:30;7.20;99.90
10828;DHT22;5467;59.334;13.512;2023-04-24T12:44:58;7.30;99.90
10828;DHT22;5467;59.334;13.512;2023-04-24T12:47:26;7.10;99.90
10828;DHT22;5467;59.334;13.512;2023-04-24T12:49:55;7.20;99.90
10828;DHT22;5467;59.334;13.512;2023-04-24T12:52:22;7.10;99.90
10828;DHT22;5467;59.334;13.512;2023-04-24T12:54:53;7.20;99.90
10828;DHT22;5467;59.334;13.512;2023-04-24T12:57:20;7.10;99.90
10828;DHT22;5467;59.334;13.512;2023-04-24T12:59:47;7.10;99.90
10828;DHT22;5467;59.334;13.512;2023-04-24T13:02:14;7.00;99.90
10828;DHT22;5467;59.334;13.512;2023-04-24T13:04:44;7.00;99.90
10828;DHT22;5467;59.334;13.512;2023-04-24T13:07:13;7.00;99.90
10828;DHT22;5467;59.334;13.512;2023-04-24T13:09:41;7.10;99.90
10828;DHT22;5467;59.334;13.512;2023-04-24T13:12:08;6.90;99.90
10828;DHT22;5467;59.334;13.512;2023-04-24T13:14:36;6.90;99.90
10828;DHT22;5467;59.334;13.512;2023-04-24T13:17:03;6.90;99.90
10828;DHT22;5467;59.334;13.512;2023-04-24T13:19:35;6.90;99.90
10828;DHT22;5467;59.334;13.512;2023-04-24T13:22:03;6.80;99.90
10828;DHT22;5467;59.334;13.512;2023-04-24T13:24:32;6.90;99.90
10828;DHT22;5467;59.334;13.512;2023-04-24T13:27:00;7.00;99.90
10828;DHT22;5467;59.334;13.512;2023-04-24T13:29:28;7.00;99.90
10828;DHT22;5467;59.334;13.512;2023-04-24T13:31:56;7.00;99.90
10828;DHT22;5467;59.334;13.512;2023-04-24T13:34:23;7.10;99.90
10828;DHT22;5467;59.334;13.512;2023-04-24T13:36:52;7.00;99.90
10828;DHT22;5467;59.334;13.512;2023-04-24T13:39:20;7.10;99.90
10828;DHT22;5467;59.334;13.512;2023-04-24T13:41:48;7.10;99.90
10828;DHT22;5467;59.334;13.512;2023-04-24T13:44:16;7.00;99.90
10828;DHT22;5467;59.334;13.512;2023-04-24T13:46:45;7.10;99.90
10828;DHT22;5467;59.334;13.512;2023-04-24T13:49:13;7.20;99.90
10828;DHT22;5467;59.334;13.512;2023-04-24T13:51:42;7.20;99.90
10828;DHT22;5467;59.334;13.512;2023-04-24T13:54:09;7.10;99.90
10828;DHT22;5467;59.334;13.512;2023-04-24T13:56:37;7.10;99.90
10828;DHT22;5467;59.334;13.512;2023-04-24T13:59:06;7.20;99.90
10828;DHT22;5467;59.334;13.512;2023-04-24T14:01:34;7.20;99.90
10828;DHT22;5467;59.334;13.512;2023-04-24T14:04:01;7.10;99.90
10828;DHT22;5467;59.334;13.512;2023-04-24T14:06:28;7.10;99.90
10828;DHT22;5467;59.334;13.512;2023-04-24T14:08:55;7.20;99.90
10828;DHT22;5467;59.334;13.512;2023-04-24T14:11:22;7.30;99.90
10828;DHT22;5467;59.334;13.512;2023-04-24T14:13:50;7.30;99.90
10828;DHT22;5467;59.334;13.512;2023-04-24T14:16:18;7.40;99.90
10828;DHT22;5467;59.334;13.512;2023-04-24T14:18:45;7.40;99.90
10828;DHT22;5467;59.334;13.512;2023-04-24T14:21:12;7.50;99.90
10828;DHT22;5467;59.334;13.512;2023-04-24T14:23:40;7.40;99.90
10828;DHT22;5467;59.334;13.512;2023-04-24T14:26:07;7.50;99.90
10828;DHT22;5467;59.334;13.512;2023-04-24T14:28:34;7.50;99.90
10828;DHT22;5467;59.334;13.512;2023-04-24T14:31:01;7.50;99.90
10828;DHT22;5467;59.334;13.512;2023-04-24T14:33:30;7.70;99.90
10828;DHT22;5467;59.334;13.512;2023-04-24T14:35:57;7.80;99.90
10828;DHT22;5467;59.334;13.512;2023-04-24T14:38:24;8.20;99.90
10828;DHT22;5467;59.334;13.512;2023-04-24T14:40:51;8.30;99.90
10828;DHT22;5467;59.334;13.512;2023-04-24T14:43:18;8.30;99.90
10828;DHT22;5467;59.334;13.512;2023-04-24T14:45:45;8.40;99.90
10828;DHT22;5467;59.334;13.512;2023-04-24T14:48:12;8.10;99.90
10828;DHT22;5467;59.334;13.512;2023-04-24T14:50:43;8.20;99.90
10828;DHT22;5467;59.334;13.512;2023-04-24T14:53:11;8.30;99.90
10828;DHT22;5467;59.334;13.512;2023-04-24T14:55:38;8.40;99.90
10828;DHT22;5467;59.334;13.512;2023-04-24T14:58:05;8.40;99.90
10828;DHT22;5467;59.334;13.512;2023-04-24T15:00:32;8.50;99.90
10828;DHT22;5467;59.334;13.512;2023-04-24T15:03:01;8.50;99.90
10828;DHT22;5467;59.334;13.512;2023-04-24T15:05:28;8.70;99.90
10828;DHT22;5467;59.334;13.512;2023-04-24T15:07:57;8.70;99.90
10828;DHT22;5467;59.334;13.512;2023-04-24T15:10:24;8.80;99.90
10828;DHT22;5467;59.334;13.512;2023-04-24T15:12:51;8.60;99.90
10828;DHT22;5467;59.334;13.512;2023-04-24T15:15:18;8.50;99.90
10828;DHT22;5467;59.334;13.512;2023-04-24T15:17:46;8.60;99.90
10828;DHT22;5467;59.334;13.512;2023-04-24T15:20:13;8.40;99.90
10828;DHT22;5467;59.334;13.512;2023-04-24T15:22:40;8.50;99.90
10828;DHT22;5467;59.334;13.512;2023-04-24T15:25:09;8.50;99.90
10828;DHT22;5467;59.334;13.512;2023-04-24T15:27:41;8.50;99.90
10828;DHT22;5467;59.334;13.512;2023-04-24T15:30:09;8.50;99.90
10828;DHT22;5467;59.334;13.512;2023-04-24T15:32:37;8.30;99.90
10828;DHT22;5467;59.334;13.512;2023-04-24T15:35:05;8.20;99.90
10828;DHT22;5467;59.334;13.512;2023-04-24T15:37:32;8.20;99.90
10828;DHT22;5467;59.334;13.512;2023-04-24T15:40:00;8.10;99.90
10828;DHT22;5467;59.334;13.512;2023-04-24T15:42:31;8.10;99.90
10828;DHT22;5467;59.334;13.512;2023-04-24T15:44:58;8.10;99.90
10828;DHT22;5467;59.334;13.512;2023-04-24T15:47:25;8.10;99.90
10828;DHT22;5467;59.334;13.512;2023-04-24T15:49:52;8.00;99.90
10828;DHT22;5467;59.334;13.512;2023-04-24T15:52:20;8.00;99.90